Mullinville, Kansas
Current Conditions -  °F | °C
As of 8:52 AM on Monday 22 Dec 2014 (Local Time) from KDDC Reporting Station
Clear Clear  
Wind Chill: 34°   Ceiling: Unl
Heat Index: 42°   Visibility: 10mi
Dew Point: 29°   Wind: 18mph
Humidity: 60%   Direction: 330°NNW
Pressure: 29.65"   Gusts: 30mph
Location:  37.59°N, 99.48°W
Report Text: KDDC 221452Z AUTO 33016G26KT 10SM CLR 06/M02 A2965 RMK AO2 PK WND 32026/1443 SLP043 T00561017 51021
Loading
Personal Weather Stations






























Interactive Weather Map New forecast layout! Learn more

10-Day Weather Forecast

Advertisements
Track Severe Weather on mobile